sensor_id;sensor_type;location;lat;lon;timestamp;P1;durP1;ratioP1;P2;durP2;ratioP2
16965;SDS011;8599;47.852;12.070;2022-07-17T00:00:27;8.93;;;4.03;;
16965;SDS011;8599;47.852;12.070;2022-07-17T00:02:54;7.93;;;4.17;;
16965;SDS011;8599;47.852;12.070;2022-07-17T00:05:21;5.20;;;3.93;;
16965;SDS011;8599;47.852;12.070;2022-07-17T00:07:49;5.03;;;3.80;;
16965;SDS011;8599;47.852;12.070;2022-07-17T00:10:16;5.33;;;3.33;;
16965;SDS011;8599;47.852;12.070;2022-07-17T00:12:43;5.67;;;3.47;;
16965;SDS011;8599;47.852;12.070;2022-07-17T00:15:10;4.23;;;3.40;;
16965;SDS011;8599;47.852;12.070;2022-07-17T00:17:37;5.37;;;3.63;;
16965;SDS011;8599;47.852;12.070;2022-07-17T00:20:04;5.33;;;3.73;;
16965;SDS011;8599;47.852;12.070;2022-07-17T00:22:32;4.73;;;3.67;;
16965;SDS011;8599;47.852;12.070;2022-07-17T00:25:01;5.47;;;2.93;;
16965;SDS011;8599;47.852;12.070;2022-07-17T00:27:28;5.07;;;3.10;;
16965;SDS011;8599;47.852;12.070;2022-07-17T00:29:55;7.43;;;3.43;;
16965;SDS011;8599;47.852;12.070;2022-07-17T00:32:22;6.27;;;3.50;;
16965;SDS011;8599;47.852;12.070;2022-07-17T00:34:49;4.33;;;2.90;;
16965;SDS011;8599;47.852;12.070;2022-07-17T00:37:16;9.40;;;3.50;;
16965;SDS011;8599;47.852;12.070;2022-07-17T00:39:43;3.43;;;2.70;;
16965;SDS011;8599;47.852;12.070;2022-07-17T00:42:12;5.50;;;3.00;;
16965;SDS011;8599;47.852;12.070;2022-07-17T00:44:39;5.07;;;2.87;;
16965;SDS011;8599;47.852;12.070;2022-07-17T00:47:09;4.47;;;3.13;;
16965;SDS011;8599;47.852;12.070;2022-07-17T00:49:38;6.13;;;3.13;;
16965;SDS011;8599;47.852;12.070;2022-07-17T00:52:05;10.40;;;3.33;;
16965;SDS011;8599;47.852;12.070;2022-07-17T00:54:34;9.97;;;4.03;;
16965;SDS011;8599;47.852;12.070;2022-07-17T00:57:03;5.93;;;3.50;;
16965;SDS011;8599;47.852;12.070;2022-07-17T00:59:34;6.70;;;3.47;;
16965;SDS011;8599;47.852;12.070;2022-07-17T01:02:03;4.37;;;3.43;;
16965;SDS011;8599;47.852;12.070;2022-07-17T01:04:31;7.53;;;4.00;;
16965;SDS011;8599;47.852;12.070;2022-07-17T01:06:58;4.47;;;3.43;;
16965;SDS011;8599;47.852;12.070;2022-07-17T01:09:25;5.60;;;3.60;;
16965;SDS011;8599;47.852;12.070;2022-07-17T01:11:53;7.03;;;3.57;;
16965;SDS011;8599;47.852;12.070;2022-07-17T01:14:20;6.20;;;3.60;;
16965;SDS011;8599;47.852;12.070;2022-07-17T01:16:49;7.43;;;4.10;;
16965;SDS011;8599;47.852;12.070;2022-07-17T01:19:17;6.07;;;3.63;;
16965;SDS011;8599;47.852;12.070;2022-07-17T01:21:47;6.77;;;3.47;;
16965;SDS011;8599;47.852;12.070;2022-07-17T01:24:16;4.77;;;3.43;;
16965;SDS011;8599;47.852;12.070;2022-07-17T01:26:45;4.40;;;3.30;;
16965;SDS011;8599;47.852;12.070;2022-07-17T01:29:13;4.37;;;3.00;;
16965;SDS011;8599;47.852;12.070;2022-07-17T01:31:41;6.43;;;3.40;;
16965;SDS011;8599;47.852;12.070;2022-07-17T01:34:09;7.43;;;3.30;;
16965;SDS011;8599;47.852;12.070;2022-07-17T01:36:37;6.70;;;3.47;;
16965;SDS011;8599;47.852;12.070;2022-07-17T01:39:06;6.83;;;3.93;;
16965;SDS011;8599;47.852;12.070;2022-07-17T01:41:33;8.17;;;3.40;;
16965;SDS011;8599;47.852;12.070;2022-07-17T01:44:00;4.10;;;3.50;;
16965;SDS011;8599;47.852;12.070;2022-07-17T01:46:28;7.57;;;3.17;;
16965;SDS011;8599;47.852;12.070;2022-07-17T01:48:55;4.43;;;3.20;;
16965;SDS011;8599;47.852;12.070;2022-07-17T01:51:22;8.53;;;3.97;;
16965;SDS011;8599;47.852;12.070;2022-07-17T01:53:48;5.00;;;3.57;;
16965;SDS011;8599;47.852;12.070;2022-07-17T01:56:17;8.53;;;3.50;;
16965;SDS011;8599;47.852;12.070;2022-07-17T01:58:43;10.63;;;3.33;;
16965;SDS011;8599;47.852;12.070;2022-07-17T02:01:10;7.47;;;3.63;;
16965;SDS011;8599;47.852;12.070;2022-07-17T02:03:37;5.47;;;3.70;;
16965;SDS011;8599;47.852;12.070;2022-07-17T02:06:04;6.70;;;3.90;;
16965;SDS011;8599;47.852;12.070;2022-07-17T02:08:31;8.93;;;3.50;;
16965;SDS011;8599;47.852;12.070;2022-07-17T02:10:58;3.77;;;3.27;;
16965;SDS011;8599;47.852;12.070;2022-07-17T02:13:26;7.27;;;3.40;;
16965;SDS011;8599;47.852;12.070;2022-07-17T02:15:53;5.73;;;3.47;;
16965;SDS011;8599;47.852;12.070;2022-07-17T02:18:20;4.40;;;3.97;;
16965;SDS011;8599;47.852;12.070;2022-07-17T02:20:46;5.30;;;3.70;;
16965;SDS011;8599;47.852;12.070;2022-07-17T02:23:15;3.67;;;3.37;;
16965;SDS011;8599;47.852;12.070;2022-07-17T02:25:42;6.07;;;3.50;;
16965;SDS011;8599;47.852;12.070;2022-07-17T02:28:09;4.40;;;3.57;;
16965;SDS011;8599;47.852;12.070;2022-07-17T02:30:37;8.93;;;4.03;;
16965;SDS011;8599;47.852;12.070;2022-07-17T02:33:04;7.50;;;3.97;;
16965;SDS011;8599;47.852;12.070;2022-07-17T02:35:32;5.57;;;3.77;;
16965;SDS011;8599;47.852;12.070;2022-07-17T02:37:59;6.67;;;3.80;;
16965;SDS011;8599;47.852;12.070;2022-07-17T02:40:26;5.73;;;4.00;;
16965;SDS011;8599;47.852;12.070;2022-07-17T02:42:53;5.77;;;3.73;;
16965;SDS011;8599;47.852;12.070;2022-07-17T02:45:20;5.87;;;4.03;;
16965;SDS011;8599;47.852;12.070;2022-07-17T02:47:51;6.83;;;3.60;;
16965;SDS011;8599;47.852;12.070;2022-07-17T02:50:18;5.23;;;3.63;;
16965;SDS011;8599;47.852;12.070;2022-07-17T02:52:45;5.43;;;4.23;;
16965;SDS011;8599;47.852;12.070;2022-07-17T02:55:14;4.07;;;3.40;;
16965;SDS011;8599;47.852;12.070;2022-07-17T02:57:42;4.70;;;3.20;;
16965;SDS011;8599;47.852;12.070;2022-07-17T03:00:12;6.53;;;3.40;;
16965;SDS011;8599;47.852;12.070;2022-07-17T03:02:41;4.53;;;3.53;;
16965;SDS011;8599;47.852;12.070;2022-07-17T03:05:09;5.80;;;3.43;;
16965;SDS011;8599;47.852;12.070;2022-07-17T03:07:37;7.10;;;3.53;;
16965;SDS011;8599;47.852;12.070;2022-07-17T03:10:04;4.77;;;3.37;;
16965;SDS011;8599;47.852;12.070;2022-07-17T03:12:32;3.70;;;3.40;;
16965;SDS011;8599;47.852;12.070;2022-07-17T03:14:59;5.00;;;3.53;;
16965;SDS011;8599;47.852;12.070;2022-07-17T03:17:26;4.27;;;3.20;;
16965;SDS011;8599;47.852;12.070;2022-07-17T03:19:53;3.93;;;3.07;;
16965;SDS011;8599;47.852;12.070;2022-07-17T03:22:21;4.03;;;2.83;;
16965;SDS011;8599;47.852;12.070;2022-07-17T03:24:48;3.20;;;2.80;;
16965;SDS011;8599;47.852;12.070;2022-07-17T03:27:15;6.90;;;3.53;;
16965;SDS011;8599;47.852;12.070;2022-07-17T03:29:42;5.87;;;3.70;;
16965;SDS011;8599;47.852;12.070;2022-07-17T03:32:09;6.87;;;3.97;;
16965;SDS011;8599;47.852;12.070;2022-07-17T03:34:36;14.67;;;4.13;;
16965;SDS011;8599;47.852;12.070;2022-07-17T03:37:03;6.77;;;3.27;;
16965;SDS011;8599;47.852;12.070;2022-07-17T03:39:31;8.97;;;3.27;;
16965;SDS011;8599;47.852;12.070;2022-07-17T03:41:58;7.17;;;3.33;;
16965;SDS011;8599;47.852;12.070;2022-07-17T03:44:25;8.37;;;3.37;;
16965;SDS011;8599;47.852;12.070;2022-07-17T03:46:53;4.47;;;3.40;;
16965;SDS011;8599;47.852;12.070;2022-07-17T03:49:20;7.53;;;3.33;;
16965;SDS011;8599;47.852;12.070;2022-07-17T03:51:47;7.07;;;2.90;;
16965;SDS011;8599;47.852;12.070;2022-07-17T03:54:14;4.63;;;3.40;;
16965;SDS011;8599;47.852;12.070;2022-07-17T03:56:42;4.53;;;3.37;;
16965;SDS011;8599;47.852;12.070;2022-07-17T03:59:09;3.20;;;2.87;;
16965;SDS011;8599;47.852;12.070;2022-07-17T04:01:36;3.90;;;3.10;;
16965;SDS011;8599;47.852;12.070;2022-07-17T04:04:03;5.43;;;3.30;;
16965;SDS011;8599;47.852;12.070;2022-07-17T04:06:30;4.43;;;3.20;;
16965;SDS011;8599;47.852;12.070;2022-07-17T04:08:57;5.83;;;3.00;;
16965;SDS011;8599;47.852;12.070;2022-07-17T04:11:24;5.30;;;3.47;;
16965;SDS011;8599;47.852;12.070;2022-07-17T04:13:53;5.83;;;3.20;;
16965;SDS011;8599;47.852;12.070;2022-07-17T04:16:20;4.10;;;3.23;;
16965;SDS011;8599;47.852;12.070;2022-07-17T04:18:47;4.83;;;3.30;;
16965;SDS011;8599;47.852;12.070;2022-07-17T04:21:14;4.30;;;3.40;;
16965;SDS011;8599;47.852;12.070;2022-07-17T04:23:41;4.23;;;3.27;;
16965;SDS011;8599;47.852;12.070;2022-07-17T04:26:08;5.13;;;3.10;;
16965;SDS011;8599;47.852;12.070;2022-07-17T04:28:35;5.23;;;2.77;;
16965;SDS011;8599;47.852;12.070;2022-07-17T04:31:03;7.33;;;3.10;;
16965;SDS011;8599;47.852;12.070;2022-07-17T04:33:30;2.97;;;2.67;;
16965;SDS011;8599;47.852;12.070;2022-07-17T04:35:57;7.10;;;3.30;;
16965;SDS011;8599;47.852;12.070;2022-07-17T04:38:24;2.67;;;2.47;;
16965;SDS011;8599;47.852;12.070;2022-07-17T04:40:51;4.47;;;3.20;;
16965;SDS011;8599;47.852;12.070;2022-07-17T04:43:18;4.13;;;2.90;;
16965;SDS011;8599;47.852;12.070;2022-07-17T04:45:44;3.93;;;2.67;;
16965;SDS011;8599;47.852;12.070;2022-07-17T04:48:13;5.73;;;2.70;;
16965;SDS011;8599;47.852;12.070;2022-07-17T04:50:40;2.97;;;2.67;;
16965;SDS011;8599;47.852;12.070;2022-07-17T04:53:07;4.73;;;3.00;;
16965;SDS011;8599;47.852;12.070;2022-07-17T04:55:34;3.03;;;2.63;;
16965;SDS011;8599;47.852;12.070;2022-07-17T04:58:02;3.80;;;3.00;;
16965;SDS011;8599;47.852;12.070;2022-07-17T05:00:29;5.27;;;2.80;;
16965;SDS011;8599;47.852;12.070;2022-07-17T05:02:55;4.17;;;2.90;;
16965;SDS011;8599;47.852;12.070;2022-07-17T05:05:24;4.30;;;2.83;;
16965;SDS011;8599;47.852;12.070;2022-07-17T05:07:50;7.20;;;3.17;;
16965;SDS011;8599;47.852;12.070;2022-07-17T05:10:18;3.93;;;2.70;;
16965;SDS011;8599;47.852;12.070;2022-07-17T05:12:45;4.53;;;3.13;;
16965;SDS011;8599;47.852;12.070;2022-07-17T05:15:12;4.17;;;3.00;;
16965;SDS011;8599;47.852;12.070;2022-07-17T05:17:39;8.70;;;3.13;;
16965;SDS011;8599;47.852;12.070;2022-07-17T05:20:06;3.63;;;2.80;;
16965;SDS011;8599;47.852;12.070;2022-07-17T05:22:35;6.43;;;3.13;;
16965;SDS011;8599;47.852;12.070;2022-07-17T05:25:02;5.13;;;2.90;;
16965;SDS011;8599;47.852;12.070;2022-07-17T05:27:29;3.20;;;2.90;;
16965;SDS011;8599;47.852;12.070;2022-07-17T05:29:56;5.33;;;2.93;;
16965;SDS011;8599;47.852;12.070;2022-07-17T05:32:23;3.63;;;2.70;;
16965;SDS011;8599;47.852;12.070;2022-07-17T05:34:50;5.73;;;3.00;;
16965;SDS011;8599;47.852;12.070;2022-07-17T05:37:17;4.07;;;2.90;;
16965;SDS011;8599;47.852;12.070;2022-07-17T05:39:45;6.63;;;2.47;;
16965;SDS011;8599;47.852;12.070;2022-07-17T05:42:12;2.93;;;2.40;;
16965;SDS011;8599;47.852;12.070;2022-07-17T05:44:39;3.50;;;2.47;;
16965;SDS011;8599;47.852;12.070;2022-07-17T05:47:06;3.70;;;2.60;;
16965;SDS011;8599;47.852;12.070;2022-07-17T05:49:33;8.93;;;2.80;;
16965;SDS011;8599;47.852;12.070;2022-07-17T05:51:59;6.70;;;2.83;;
16965;SDS011;8599;47.852;12.070;2022-07-17T05:54:26;4.83;;;2.37;;
16965;SDS011;8599;47.852;12.070;2022-07-17T05:56:55;4.33;;;2.20;;
16965;SDS011;8599;47.852;12.070;2022-07-17T05:59:21;7.50;;;2.50;;
16965;SDS011;8599;47.852;12.070;2022-07-17T06:01:48;5.50;;;2.43;;
16965;SDS011;8599;47.852;12.070;2022-07-17T06:04:15;4.80;;;2.50;;
16965;SDS011;8599;47.852;12.070;2022-07-17T06:06:42;7.33;;;2.40;;
16965;SDS011;8599;47.852;12.070;2022-07-17T06:09:09;4.40;;;2.47;;
16965;SDS011;8599;47.852;12.070;2022-07-17T06:11:36;3.30;;;2.20;;
16965;SDS011;8599;47.852;12.070;2022-07-17T06:14:04;7.40;;;2.33;;
16965;SDS011;8599;47.852;12.070;2022-07-17T06:16:31;4.83;;;2.40;;
16965;SDS011;8599;47.852;12.070;2022-07-17T06:18:58;8.03;;;2.10;;
16965;SDS011;8599;47.852;12.070;2022-07-17T06:21:25;2.63;;;2.30;;
16965;SDS011;8599;47.852;12.070;2022-07-17T06:23:52;2.67;;;1.97;;
16965;SDS011;8599;47.852;12.070;2022-07-17T06:26:19;3.50;;;1.97;;
16965;SDS011;8599;47.852;12.070;2022-07-17T06:28:46;4.20;;;2.70;;
16965;SDS011;8599;47.852;12.070;2022-07-17T06:31:15;4.30;;;3.03;;
16965;SDS011;8599;47.852;12.070;2022-07-17T06:33:42;9.10;;;2.70;;
16965;SDS011;8599;47.852;12.070;2022-07-17T06:36:09;4.30;;;2.97;;
16965;SDS011;8599;47.852;12.070;2022-07-17T06:38:36;6.70;;;3.10;;
16965;SDS011;8599;47.852;12.070;2022-07-17T06:41:03;8.63;;;2.80;;
16965;SDS011;8599;47.852;12.070;2022-07-17T06:43:30;6.70;;;2.63;;
16965;SDS011;8599;47.852;12.070;2022-07-17T06:45:57;4.50;;;2.33;;
16965;SDS011;8599;47.852;12.070;2022-07-17T06:48:27;5.13;;;2.47;;
16965;SDS011;8599;47.852;12.070;2022-07-17T06:50:55;3.83;;;2.87;;
16965;SDS011;8599;47.852;12.070;2022-07-17T06:53:22;3.37;;;2.53;;
16965;SDS011;8599;47.852;12.070;2022-07-17T06:55:49;2.60;;;2.13;;
16965;SDS011;8599;47.852;12.070;2022-07-17T06:58:16;6.50;;;2.43;;
16965;SDS011;8599;47.852;12.070;2022-07-17T07:00:42;3.20;;;2.20;;
16965;SDS011;8599;47.852;12.070;2022-07-17T07:03:09;3.60;;;2.20;;
16965;SDS011;8599;47.852;12.070;2022-07-17T07:05:37;4.13;;;2.80;;
16965;SDS011;8599;47.852;12.070;2022-07-17T07:08:04;5.47;;;2.23;;
16965;SDS011;8599;47.852;12.070;2022-07-17T07:10:31;4.43;;;2.20;;
16965;SDS011;8599;47.852;12.070;2022-07-17T07:12:58;4.37;;;2.00;;
16965;SDS011;8599;47.852;12.070;2022-07-17T07:15:25;5.03;;;2.20;;
16965;SDS011;8599;47.852;12.070;2022-07-17T07:17:52;4.63;;;2.20;;
16965;SDS011;8599;47.852;12.070;2022-07-17T07:20:19;4.75;;;2.08;;
16965;SDS011;8599;47.852;12.070;2022-07-17T07:22:47;5.90;;;2.23;;
16965;SDS011;8599;47.852;12.070;2022-07-17T07:25:14;2.50;;;2.23;;
16965;SDS011;8599;47.852;12.070;2022-07-17T07:27:41;3.23;;;2.30;;
16965;SDS011;8599;47.852;12.070;2022-07-17T07:30:08;3.57;;;2.00;;
16965;SDS011;8599;47.852;12.070;2022-07-17T07:32:36;4.97;;;2.57;;
16965;SDS011;8599;47.852;12.070;2022-07-17T07:35:03;4.20;;;2.13;;
16965;SDS011;8599;47.852;12.070;2022-07-17T07:37:31;6.67;;;2.10;;
16965;SDS011;8599;47.852;12.070;2022-07-17T07:39:59;3.27;;;2.30;;
16965;SDS011;8599;47.852;12.070;2022-07-17T07:42:27;7.03;;;2.97;;
16965;SDS011;8599;47.852;12.070;2022-07-17T07:44:54;4.43;;;2.50;;
16965;SDS011;8599;47.852;12.070;2022-07-17T07:47:21;5.27;;;2.13;;
16965;SDS011;8599;47.852;12.070;2022-07-17T07:49:48;5.07;;;2.40;;
16965;SDS011;8599;47.852;12.070;2022-07-17T07:52:15;7.20;;;2.93;;
16965;SDS011;8599;47.852;12.070;2022-07-17T07:54:42;5.13;;;2.67;;
16965;SDS011;8599;47.852;12.070;2022-07-17T07:57:10;5.23;;;2.40;;
16965;SDS011;8599;47.852;12.070;2022-07-17T07:59:37;7.88;;;3.08;;
16965;SDS011;8599;47.852;12.070;2022-07-17T08:02:04;5.43;;;2.60;;
16965;SDS011;8599;47.852;12.070;2022-07-17T08:04:31;3.58;;;2.35;;
16965;SDS011;8599;47.852;12.070;2022-07-17T08:06:58;7.77;;;2.37;;
16965;SDS011;8599;47.852;12.070;2022-07-17T08:09:25;2.50;;;2.07;;
16965;SDS011;8599;47.852;12.070;2022-07-17T08:11:52;4.63;;;2.10;;
16965;SDS011;8599;47.852;12.070;2022-07-17T08:14:20;4.45;;;2.13;;
16965;SDS011;8599;47.852;12.070;2022-07-17T08:16:47;4.10;;;2.22;;
16965;SDS011;8599;47.852;12.070;2022-07-17T08:19:14;3.05;;;2.17;;
16965;SDS011;8599;47.852;12.070;2022-07-17T08:21:41;4.88;;;2.38;;
16965;SDS011;8599;47.852;12.070;2022-07-17T08:24:08;3.08;;;1.98;;
16965;SDS011;8599;47.852;12.070;2022-07-17T08:26:34;4.23;;;2.00;;
16965;SDS011;8599;47.852;12.070;2022-07-17T08:29:01;3.00;;;2.05;;
16965;SDS011;8599;47.852;12.070;2022-07-17T08:31:30;4.05;;;2.13;;
16965;SDS011;8599;47.852;12.070;2022-07-17T08:33:57;2.55;;;2.03;;
16965;SDS011;8599;47.852;12.070;2022-07-17T08:36:23;4.43;;;2.38;;
16965;SDS011;8599;47.852;12.070;2022-07-17T08:38:50;6.03;;;2.13;;
16965;SDS011;8599;47.852;12.070;2022-07-17T08:41:17;4.10;;;2.20;;
16965;SDS011;8599;47.852;12.070;2022-07-17T08:43:47;3.03;;;2.20;;
16965;SDS011;8599;47.852;12.070;2022-07-17T08:46:16;2.15;;;1.67;;
16965;SDS011;8599;47.852;12.070;2022-07-17T08:48:45;4.88;;;2.50;;
16965;SDS011;8599;47.852;12.070;2022-07-17T08:51:14;5.75;;;2.30;;
16965;SDS011;8599;47.852;12.070;2022-07-17T08:53:43;3.72;;;2.08;;
16965;SDS011;8599;47.852;12.070;2022-07-17T08:56:10;2.67;;;2.30;;
16965;SDS011;8599;47.852;12.070;2022-07-17T08:58:37;3.63;;;2.00;;
16965;SDS011;8599;47.852;12.070;2022-07-17T09:01:04;7.57;;;2.70;;
16965;SDS011;8599;47.852;12.070;2022-07-17T09:03:31;5.15;;;2.40;;
16965;SDS011;8599;47.852;12.070;2022-07-17T09:06:00;2.72;;;2.05;;
16965;SDS011;8599;47.852;12.070;2022-07-17T09:08:27;4.70;;;3.17;;
16965;SDS011;8599;47.852;12.070;2022-07-17T09:10:58;3.30;;;2.17;;
16965;SDS011;8599;47.852;12.070;2022-07-17T09:13:26;9.63;;;3.13;;
16965;SDS011;8599;47.852;12.070;2022-07-17T09:15:56;2.50;;;2.17;;
16965;SDS011;8599;47.852;12.070;2022-07-17T09:18:24;4.15;;;2.15;;
16965;SDS011;8599;47.852;12.070;2022-07-17T09:20:52;3.50;;;2.33;;
16965;SDS011;8599;47.852;12.070;2022-07-17T09:23:23;4.70;;;2.33;;
16965;SDS011;8599;47.852;12.070;2022-07-17T09:25:52;2.78;;;2.40;;
16965;SDS011;8599;47.852;12.070;2022-07-17T09:28:20;4.90;;;2.70;;
16965;SDS011;8599;47.852;12.070;2022-07-17T09:30:48;6.05;;;2.45;;
16965;SDS011;8599;47.852;12.070;2022-07-17T09:33:17;5.47;;;2.38;;
16965;SDS011;8599;47.852;12.070;2022-07-17T09:35:49;3.92;;;2.42;;
16965;SDS011;8599;47.852;12.070;2022-07-17T09:38:32;4.47;;;2.22;;
16965;SDS011;8599;47.852;12.070;2022-07-17T09:41:01;8.00;;;2.72;;
16965;SDS011;8599;47.852;12.070;2022-07-17T09:43:40;3.30;;;2.38;;
16965;SDS011;8599;47.852;12.070;2022-07-17T09:46:09;6.38;;;2.10;;
16965;SDS011;8599;47.852;12.070;2022-07-17T09:48:40;4.90;;;2.30;;
16965;SDS011;8599;47.852;12.070;2022-07-17T09:51:12;5.10;;;2.33;;
16965;SDS011;8599;47.852;12.070;2022-07-17T09:53:46;6.18;;;2.25;;
16965;SDS011;8599;47.852;12.070;2022-07-17T09:56:15;2.60;;;2.10;;
16965;SDS011;8599;47.852;12.070;2022-07-17T09:58:44;3.50;;;1.98;;
16965;SDS011;8599;47.852;12.070;2022-07-17T10:01:13;3.72;;;2.00;;
16965;SDS011;8599;47.852;12.070;2022-07-17T10:03:41;6.75;;;2.42;;
16965;SDS011;8599;47.852;12.070;2022-07-17T10:06:08;6.68;;;2.22;;
16965;SDS011;8599;47.852;12.070;2022-07-17T10:08:36;4.32;;;3.30;;
16965;SDS011;8599;47.852;12.070;2022-07-17T10:11:05;3.97;;;2.08;;
16965;SDS011;8599;47.852;12.070;2022-07-17T10:13:32;2.05;;;1.85;;
16965;SDS011;8599;47.852;12.070;2022-07-17T10:16:00;4.95;;;2.30;;
16965;SDS011;8599;47.852;12.070;2022-07-17T10:18:34;5.90;;;3.40;;
16965;SDS011;8599;47.852;12.070;2022-07-17T10:21:12;2.13;;;1.75;;
16965;SDS011;8599;47.852;12.070;2022-07-17T10:23:41;9.75;;;2.33;;
16965;SDS011;8599;47.852;12.070;2022-07-17T10:26:10;7.25;;;1.70;;
16965;SDS011;8599;47.852;12.070;2022-07-17T10:28:38;2.03;;;1.83;;
16965;SDS011;8599;47.852;12.070;2022-07-17T10:31:06;3.38;;;1.77;;
16965;SDS011;8599;47.852;12.070;2022-07-17T10:33:33;4.90;;;1.73;;
16965;SDS011;8599;47.852;12.070;2022-07-17T10:36:00;8.85;;;1.88;;
16965;SDS011;8599;47.852;12.070;2022-07-17T10:38:27;7.07;;;2.20;;
16965;SDS011;8599;47.852;12.070;2022-07-17T10:40:58;2.85;;;1.80;;
16965;SDS011;8599;47.852;12.070;2022-07-17T10:43:28;6.20;;;2.00;;
16965;SDS011;8599;47.852;12.070;2022-07-17T10:46:08;7.32;;;2.40;;
16965;SDS011;8599;47.852;12.070;2022-07-17T10:48:35;3.35;;;1.98;;
16965;SDS011;8599;47.852;12.070;2022-07-17T10:51:05;2.33;;;1.70;;
16965;SDS011;8599;47.852;12.070;2022-07-17T10:53:33;5.32;;;1.73;;
16965;SDS011;8599;47.852;12.070;2022-07-17T10:56:01;2.67;;;1.80;;
16965;SDS011;8599;47.852;12.070;2022-07-17T10:58:32;2.47;;;1.67;;
16965;SDS011;8599;47.852;12.070;2022-07-17T11:01:01;4.13;;;1.88;;
16965;SDS011;8599;47.852;12.070;2022-07-17T11:03:35;6.53;;;2.38;;
16965;SDS011;8599;47.852;12.070;2022-07-17T11:06:11;2.55;;;1.65;;
16965;SDS011;8599;47.852;12.070;2022-07-17T11:08:41;1.80;;;1.70;;
16965;SDS011;8599;47.852;12.070;2022-07-17T11:11:09;2.55;;;1.73;;
16965;SDS011;8599;47.852;12.070;2022-07-17T11:13:37;2.17;;;1.80;;
16965;SDS011;8599;47.852;12.070;2022-07-17T11:16:04;2.63;;;1.70;;
16965;SDS011;8599;47.852;12.070;2022-07-17T11:18:31;2.05;;;1.65;;
16965;SDS011;8599;47.852;12.070;2022-07-17T11:20:59;4.28;;;2.13;;
16965;SDS011;8599;47.852;12.070;2022-07-17T11:23:28;2.65;;;1.70;;
16965;SDS011;8599;47.852;12.070;2022-07-17T11:25:58;4.00;;;2.00;;
16965;SDS011;8599;47.852;12.070;2022-07-17T11:28:27;2.90;;;1.70;;
16965;SDS011;8599;47.852;12.070;2022-07-17T11:31:01;9.52;;;1.92;;
16965;SDS011;8599;47.852;12.070;2022-07-17T11:33:29;8.20;;;1.75;;
16965;SDS011;8599;47.852;12.070;2022-07-17T11:35:56;4.97;;;1.65;;
16965;SDS011;8599;47.852;12.070;2022-07-17T11:38:23;8.18;;;1.88;;
16965;SDS011;8599;47.852;12.070;2022-07-17T11:40:54;4.82;;;1.75;;
16965;SDS011;8599;47.852;12.070;2022-07-17T11:43:22;9.18;;;2.10;;
16965;SDS011;8599;47.852;12.070;2022-07-17T11:45:49;3.08;;;1.90;;
16965;SDS011;8599;47.852;12.070;2022-07-17T11:48:18;4.10;;;1.80;;
16965;SDS011;8599;47.852;12.070;2022-07-17T11:50:55;2.35;;;1.63;;
16965;SDS011;8599;47.852;12.070;2022-07-17T11:53:31;6.13;;;1.90;;
16965;SDS011;8599;47.852;12.070;2022-07-17T11:55:59;1.90;;;1.65;;
16965;SDS011;8599;47.852;12.070;2022-07-17T11:58:26;6.78;;;1.90;;
16965;SDS011;8599;47.852;12.070;2022-07-17T12:01:01;2.28;;;1.70;;
16965;SDS011;8599;47.852;12.070;2022-07-17T12:03:30;3.55;;;1.80;;
16965;SDS011;8599;47.852;12.070;2022-07-17T12:05:57;2.22;;;1.70;;
16965;SDS011;8599;47.852;12.070;2022-07-17T12:08:24;3.85;;;1.60;;
16965;SDS011;8599;47.852;12.070;2022-07-17T12:11:01;2.95;;;2.00;;
16965;SDS011;8599;47.852;12.070;2022-07-17T12:13:37;4.68;;;1.60;;
16965;SDS011;8599;47.852;12.070;2022-07-17T12:16:18;2.13;;;1.90;;
16965;SDS011;8599;47.852;12.070;2022-07-17T12:18:56;2.03;;;1.50;;
16965;SDS011;8599;47.852;12.070;2022-07-17T12:21:29;3.05;;;1.90;;
16965;SDS011;8599;47.852;12.070;2022-07-17T12:23:58;2.03;;;1.70;;
16965;SDS011;8599;47.852;12.070;2022-07-17T12:26:27;6.05;;;2.00;;
16965;SDS011;8599;47.852;12.070;2022-07-17T12:28:54;7.32;;;1.80;;
16965;SDS011;8599;47.852;12.070;2022-07-17T12:31:21;3.35;;;1.92;;
16965;SDS011;8599;47.852;12.070;2022-07-17T12:33:50;7.70;;;1.70;;
16965;SDS011;8599;47.852;12.070;2022-07-17T12:36:19;5.90;;;1.85;;
16965;SDS011;8599;47.852;12.070;2022-07-17T12:38:47;4.07;;;1.88;;
16965;SDS011;8599;47.852;12.070;2022-07-17T12:41:14;3.85;;;1.85;;
16965;SDS011;8599;47.852;12.070;2022-07-17T12:43:41;3.58;;;1.98;;
16965;SDS011;8599;47.852;12.070;2022-07-17T12:46:08;7.22;;;2.00;;
16965;SDS011;8599;47.852;12.070;2022-07-17T12:48:35;2.03;;;1.80;;
16965;SDS011;8599;47.852;12.070;2022-07-17T12:51:04;4.00;;;2.10;;
16965;SDS011;8599;47.852;12.070;2022-07-17T12:53:32;2.90;;;1.77;;
16965;SDS011;8599;47.852;12.070;2022-07-17T12:56:00;4.78;;;2.00;;
16965;SDS011;8599;47.852;12.070;2022-07-17T12:58:27;6.53;;;2.22;;
16965;SDS011;8599;47.852;12.070;2022-07-17T13:00:54;6.70;;;1.90;;
16965;SDS011;8599;47.852;12.070;2022-07-17T13:03:21;5.25;;;2.00;;
16965;SDS011;8599;47.852;12.070;2022-07-17T13:05:48;3.08;;;1.80;;
16965;SDS011;8599;47.852;12.070;2022-07-17T13:08:15;6.88;;;2.35;;
16965;SDS011;8599;47.852;12.070;2022-07-17T13:10:43;3.58;;;1.60;;
16965;SDS011;8599;47.852;12.070;2022-07-17T13:13:11;3.42;;;1.90;;
16965;SDS011;8599;47.852;12.070;2022-07-17T13:15:37;1.95;;;1.70;;
16965;SDS011;8599;47.852;12.070;2022-07-17T13:18:04;4.43;;;2.00;;
16965;SDS011;8599;47.852;12.070;2022-07-17T13:20:31;3.75;;;2.10;;
16965;SDS011;8599;47.852;12.070;2022-07-17T13:22:58;2.67;;;2.08;;
16965;SDS011;8599;47.852;12.070;2022-07-17T13:25:25;2.53;;;2.10;;
16965;SDS011;8599;47.852;12.070;2022-07-17T13:27:54;2.38;;;1.90;;
16965;SDS011;8599;47.852;12.070;2022-07-17T13:30:20;3.30;;;1.80;;
16965;SDS011;8599;47.852;12.070;2022-07-17T13:32:47;5.10;;;2.05;;
16965;SDS011;8599;47.852;12.070;2022-07-17T13:35:14;7.45;;;1.90;;
16965;SDS011;8599;47.852;12.070;2022-07-17T13:37:42;5.60;;;1.85;;
16965;SDS011;8599;47.852;12.070;2022-07-17T13:40:10;2.83;;;1.98;;
16965;SDS011;8599;47.852;12.070;2022-07-17T13:42:37;4.40;;;1.73;;
16965;SDS011;8599;47.852;12.070;2022-07-17T13:45:07;5.32;;;2.00;;
16965;SDS011;8599;47.852;12.070;2022-07-17T13:47:34;7.93;;;2.33;;
16965;SDS011;8599;47.852;12.070;2022-07-17T13:50:01;2.30;;;1.90;;
16965;SDS011;8599;47.852;12.070;2022-07-17T13:52:29;3.75;;;2.13;;
16965;SDS011;8599;47.852;12.070;2022-07-17T13:54:56;5.45;;;1.77;;
16965;SDS011;8599;47.852;12.070;2022-07-17T13:57:24;5.55;;;1.88;;
16965;SDS011;8599;47.852;12.070;2022-07-17T13:59:51;2.83;;;1.95;;
16965;SDS011;8599;47.852;12.070;2022-07-17T14:02:20;1.75;;;1.60;;
16965;SDS011;8599;47.852;12.070;2022-07-17T14:04:47;3.28;;;1.90;;
16965;SDS011;8599;47.852;12.070;2022-07-17T14:07:14;2.95;;;1.90;;
16965;SDS011;8599;47.852;12.070;2022-07-17T14:09:42;5.45;;;2.00;;
16965;SDS011;8599;47.852;12.070;2022-07-17T14:12:09;1.75;;;1.65;;
16965;SDS011;8599;47.852;12.070;2022-07-17T14:14:36;4.43;;;1.80;;
16965;SDS011;8599;47.852;12.070;2022-07-17T14:17:03;2.90;;;1.42;;
16965;SDS011;8599;47.852;12.070;2022-07-17T14:19:31;4.70;;;1.60;;
16965;SDS011;8599;47.852;12.070;2022-07-17T14:21:59;2.17;;;1.67;;
16965;SDS011;8599;47.852;12.070;2022-07-17T14:24:26;3.92;;;1.95;;
16965;SDS011;8599;47.852;12.070;2022-07-17T14:26:52;3.45;;;1.88;;
16965;SDS011;8599;47.852;12.070;2022-07-17T14:29:19;3.80;;;1.50;;
16965;SDS011;8599;47.852;12.070;2022-07-17T14:31:46;3.25;;;1.80;;
16965;SDS011;8599;47.852;12.070;2022-07-17T14:34:13;8.68;;;2.35;;
16965;SDS011;8599;47.852;12.070;2022-07-17T14:36:43;4.10;;;1.63;;
16965;SDS011;8599;47.852;12.070;2022-07-17T14:39:10;3.85;;;1.55;;
16965;SDS011;8599;47.852;12.070;2022-07-17T14:41:37;1.63;;;1.50;;
16965;SDS011;8599;47.852;12.070;2022-07-17T14:44:04;2.83;;;2.00;;
16965;SDS011;8599;47.852;12.070;2022-07-17T14:46:31;2.70;;;2.30;;
16965;SDS011;8599;47.852;12.070;2022-07-17T14:49:00;2.15;;;1.70;;
16965;SDS011;8599;47.852;12.070;2022-07-17T14:51:27;2.03;;;1.85;;